createdAt,value
2022-09-03T00:00:56.867Z,72.51
2022-09-03T00:03:31.229Z,72.50
2022-09-03T00:06:09.114Z,72.19
2022-09-03T00:08:43.845Z,72.52
2022-09-03T00:11:19.179Z,72.51
2022-09-03T00:13:54.101Z,72.70
2022-09-03T00:16:27.914Z,72.67
2022-09-03T00:18:59.943Z,72.63
2022-09-03T00:21:38.810Z,72.74
2022-09-03T00:24:14.348Z,72.36
2022-09-03T00:26:47.549Z,72.46
2022-09-03T00:29:20.233Z,72.90
2022-09-03T00:31:54.743Z,72.44
2022-09-03T00:34:27.354Z,72.62
2022-09-03T00:36:55.776Z,72.73
2022-09-03T00:39:27.036Z,72.46
2022-09-03T00:42:11.114Z,72.45
2022-09-03T00:45:04.666Z,72.44
2022-09-03T00:47:42.795Z,72.48
2022-09-03T00:50:22.471Z,72.47
2022-09-03T00:53:01.013Z,72.16
2022-09-03T00:55:40.611Z,72.15
2022-09-03T00:58:44.532Z,71.88
2022-09-03T01:01:22.010Z,72.05
2022-09-03T01:04:07.820Z,72.13
2022-09-03T01:06:46.064Z,71.91
2022-09-03T01:09:29.727Z,72.16
2022-09-03T01:12:02.607Z,72.46
2022-09-03T01:14:44.505Z,72.54
2022-09-03T01:17:24.857Z,72.40
2022-09-03T01:20:09.939Z,72.67
2022-09-03T01:23:03.184Z,72.83
2022-09-03T01:25:45.244Z,72.99
2022-09-03T01:28:24.761Z,72.75
2022-09-03T01:30:59.302Z,73.02
2022-09-03T01:33:36.418Z,72.68
2022-09-03T01:36:13.162Z,72.88
2022-09-03T01:38:48.702Z,72.98
2022-09-03T01:41:45.983Z,72.90
2022-09-03T01:44:24.234Z,73.11
2022-09-03T01:47:02.686Z,72.87
2022-09-03T01:49:39.302Z,72.88
2022-09-03T01:52:14.127Z,73.01
2022-09-03T01:54:56.129Z,72.52
2022-09-03T01:57:56.216Z,72.86
2022-09-03T02:00:28.986Z,73.10
2022-09-03T02:02:57.311Z,72.99
2022-09-03T02:05:27.241Z,72.99
2022-09-03T02:08:00.281Z,73.05
2022-09-03T02:10:34.097Z,73.02
2022-09-03T02:13:08.598Z,72.82
2022-09-03T02:15:41.481Z,72.53
2022-09-03T02:18:16.159Z,72.61
2022-09-03T02:20:45.029Z,72.77
2022-09-03T02:23:13.238Z,72.52
2022-09-03T02:25:49.876Z,72.57
2022-09-03T02:28:18.437Z,72.77
2022-09-03T02:30:49.060Z,73.03
2022-09-03T02:33:17.731Z,73.02
2022-09-03T02:35:46.525Z,73.43
2022-09-03T02:38:17.143Z,73.38
2022-09-03T02:40:45.832Z,73.22
2022-09-03T02:43:18.900Z,73.31
2022-09-03T02:45:55.752Z,73.55
2022-09-03T02:48:26.161Z,73.40
2022-09-03T02:50:54.722Z,73.81
2022-09-03T02:53:23.148Z,73.70
2022-09-03T02:55:51.755Z,73.59
2022-09-03T02:58:20.104Z,74.19
2022-09-03T03:00:49.967Z,74.00
2022-09-03T03:03:18.225Z,74.12
2022-09-03T03:05:50.901Z,74.28
2022-09-03T03:08:21.333Z,74.45
2022-09-03T03:10:52.216Z,74.43
2022-09-03T03:13:20.562Z,74.43
2022-09-03T03:15:50.639Z,74.22
2022-09-03T03:18:19.037Z,74.25
2022-09-03T03:20:48.524Z,73.94
2022-09-03T03:23:16.904Z,74.18
2022-09-03T03:25:45.342Z,74.04
2022-09-03T03:28:15.502Z,74.09
2022-09-03T03:30:47.687Z,73.93
2022-09-03T03:33:17.484Z,73.59
2022-09-03T03:35:45.724Z,73.88
2022-09-03T03:38:14.211Z,73.77
2022-09-03T03:40:42.417Z,73.97
2022-09-03T03:43:10.651Z,73.92
2022-09-03T03:45:39.178Z,73.90
2022-09-03T03:48:07.419Z,73.79
2022-09-03T03:50:38.227Z,73.92
2022-09-03T03:53:06.453Z,73.32
2022-09-03T03:55:35.050Z,73.89
2022-09-03T03:58:03.885Z,73.71
2022-09-03T04:00:32.215Z,73.61
2022-09-03T04:03:01.711Z,73.99
2022-09-03T04:05:33.642Z,73.50
2022-09-03T04:08:04.577Z,74.25
2022-09-03T04:10:32.899Z,74.13
2022-09-03T04:13:01.136Z,74.27
2022-09-03T04:15:29.354Z,74.26
2022-09-03T04:17:57.570Z,74.39
2022-09-03T04:20:25.777Z,74.27
2022-09-03T04:22:53.952Z,74.54
2022-09-03T04:25:23.668Z,74.36
2022-09-03T04:27:53.492Z,74.22
2022-09-03T04:30:22.901Z,74.45
2022-09-03T04:32:54.757Z,74.16
2022-09-03T04:35:23.760Z,74.43
2022-09-03T04:37:52.376Z,74.38
2022-09-03T04:40:20.835Z,74.09
2022-09-03T04:42:51.046Z,74.09
2022-09-03T04:45:19.718Z,74.30
2022-09-03T04:47:59.013Z,74.41
2022-09-03T04:50:28.172Z,74.53
2022-09-03T04:53:07.638Z,74.54
2022-09-03T04:55:37.717Z,74.59
2022-09-03T04:58:09.060Z,74.58
2022-09-03T05:00:38.091Z,74.69
2022-09-03T05:03:06.337Z,74.67
2022-09-03T05:05:34.861Z,74.88
2022-09-03T05:08:03.585Z,74.90
2022-09-03T05:10:32.726Z,74.86
2022-09-03T05:13:02.878Z,75.17
2022-09-03T05:15:34.782Z,75.32
2022-09-03T05:18:04.303Z,75.08
2022-09-03T05:20:33.294Z,75.20
2022-09-03T05:23:04.025Z,75.30
2022-09-03T05:25:33.396Z,75.31
2022-09-03T05:28:02.497Z,75.38
2022-09-03T05:30:32.449Z,75.35
2022-09-03T05:33:00.741Z,75.10
2022-09-03T05:35:30.160Z,75.13
2022-09-03T05:37:59.609Z,75.13
2022-09-03T05:40:29.729Z,74.97
2022-09-03T05:42:59.967Z,75.09
2022-09-03T05:45:29.872Z,74.74
2022-09-03T05:48:02.755Z,74.73
2022-09-03T05:50:31.025Z,74.53
2022-09-03T05:53:00.329Z,74.39
2022-09-03T05:55:30.123Z,74.51
2022-09-03T05:57:58.365Z,74.42
2022-09-03T06:00:26.575Z,74.38
2022-09-03T06:02:55.516Z,74.52
2022-09-03T06:05:25.260Z,74.06
2022-09-03T06:07:53.569Z,74.06
2022-09-03T06:10:26.138Z,74.23
2022-09-03T06:13:04.010Z,74.05
2022-09-03T06:15:32.904Z,74.20
2022-09-03T06:18:01.106Z,73.55
2022-09-03T06:20:36.416Z,73.71
2022-09-03T06:23:06.302Z,73.69
2022-09-03T06:25:34.507Z,73.46
2022-09-03T06:28:02.824Z,73.33
2022-09-03T06:30:30.991Z,72.74
2022-09-03T06:32:59.468Z,72.76
2022-09-03T06:35:27.969Z,72.63
2022-09-03T06:38:00.537Z,72.32
2022-09-03T06:40:29.346Z,72.20
2022-09-03T06:43:02.076Z,71.89
2022-09-03T06:45:30.967Z,71.64
2022-09-03T06:47:59.188Z,71.76
2022-09-03T06:50:28.610Z,71.46
2022-09-03T06:53:01.340Z,71.23
2022-09-03T06:55:29.639Z,70.73
2022-09-03T06:57:58.127Z,70.47
2022-09-03T07:00:27.881Z,70.62
2022-09-03T07:03:00.259Z,71.05
2022-09-03T07:05:30.683Z,70.68
2022-09-03T07:08:00.365Z,70.57
2022-09-03T07:10:28.642Z,70.55
2022-09-03T07:12:57.200Z,70.43
2022-09-03T07:15:26.442Z,70.80
2022-09-03T07:17:55.068Z,70.34
2022-09-03T07:20:23.426Z,70.34
2022-09-03T07:22:51.737Z,70.21
2022-09-03T07:25:22.382Z,69.81
2022-09-03T07:27:51.333Z,69.38
2022-09-03T07:30:20.414Z,69.07
2022-09-03T07:32:51.757Z,68.77
2022-09-03T07:35:20.279Z,68.40
2022-09-03T07:37:50.106Z,68.64
2022-09-03T07:40:19.983Z,68.26
2022-09-03T07:42:54.516Z,67.56
2022-09-03T07:45:25.123Z,67.38
2022-09-03T07:47:53.965Z,67.12
2022-09-03T07:50:22.172Z,67.30
2022-09-03T07:52:52.689Z,67.40
2022-09-03T07:55:21.286Z,67.62
2022-09-03T07:57:50.945Z,67.18
2022-09-03T08:00:19.415Z,66.49
2022-09-03T08:02:48.684Z,66.65
2022-09-03T08:05:19.300Z,66.53
2022-09-03T08:07:48.494Z,66.28
2022-09-03T08:10:17.880Z,66.25
2022-09-03T08:12:46.205Z,66.15
2022-09-03T08:15:16.172Z,65.71
2022-09-03T08:17:45.751Z,65.15
2022-09-03T08:20:14.056Z,64.91
2022-09-03T08:22:42.935Z,64.66
2022-09-03T08:25:13.793Z,64.65
2022-09-03T08:27:43.618Z,65.02
2022-09-03T08:30:13.088Z,64.60
2022-09-03T08:32:45.854Z,65.35
2022-09-03T08:35:14.056Z,65.48
2022-09-03T08:37:42.503Z,64.69
2022-09-03T08:40:12.300Z,64.62
2022-09-03T08:42:57.576Z,64.37
2022-09-03T08:45:26.762Z,65.21
2022-09-03T08:48:05.041Z,65.18
2022-09-03T08:50:38.150Z,65.10
2022-09-03T08:53:15.017Z,64.37
2022-09-03T08:55:53.021Z,63.88
2022-09-03T08:58:23.341Z,63.40
2022-09-03T09:01:01.728Z,62.80
2022-09-03T09:03:43.502Z,61.84
2022-09-03T09:06:22.504Z,61.36
2022-09-03T09:09:04.175Z,61.32
2022-09-03T09:11:43.253Z,60.65
2022-09-03T09:14:20.574Z,59.52
2022-09-03T09:16:59.997Z,59.38
2022-09-03T09:19:44.391Z,59.01
2022-09-03T09:22:20.003Z,58.69
2022-09-03T09:24:50.098Z,58.18
2022-09-03T09:27:18.801Z,58.10
2022-09-03T09:29:50.009Z,57.78
2022-09-03T09:32:21.688Z,58.12
2022-09-03T09:34:53.350Z,58.09
2022-09-03T09:37:22.136Z,57.78
2022-09-03T09:39:58.925Z,57.02
2022-09-03T09:42:31.279Z,57.04
2022-09-03T09:45:11.053Z,56.05
2022-09-03T09:47:42.584Z,56.30
2022-09-03T09:50:25.078Z,56.56
2022-09-03T09:53:05.375Z,56.07
2022-09-03T09:55:33.949Z,55.80
2022-09-03T09:58:14.312Z,56.42
2022-09-03T10:00:43.235Z,56.75
2022-09-03T10:03:13.940Z,56.55
2022-09-03T10:06:23.381Z,56.95
2022-09-03T10:08:51.754Z,56.92
2022-09-03T10:11:25.552Z,57.29
2022-09-03T10:13:57.453Z,57.68
2022-09-03T10:16:30.491Z,58.20
2022-09-03T10:19:08.769Z,57.98
2022-09-03T10:21:48.462Z,58.10
2022-09-03T10:24:42.981Z,57.81
2022-09-03T10:27:15.872Z,57.97
2022-09-03T10:29:44.199Z,58.99
2022-09-03T10:32:25.759Z,58.84
2022-09-03T10:35:12.753Z,59.34
2022-09-03T10:37:48.741Z,59.14
2022-09-03T10:40:31.086Z,59.22
2022-09-03T10:43:10.672Z,59.78
2022-09-03T10:45:44.679Z,59.17
2022-09-03T10:48:42.117Z,58.26
2022-09-03T10:51:21.521Z,57.66
2022-09-03T10:54:06.411Z,56.95
2022-09-03T10:56:51.337Z,56.84
2022-09-03T10:59:33.747Z,56.33
2022-09-03T11:02:08.854Z,55.79
2022-09-03T11:04:45.590Z,55.39
2022-09-03T11:07:16.426Z,55.23
2022-09-03T11:09:54.312Z,55.10
2022-09-03T11:12:29.318Z,54.51
2022-09-03T11:15:04.237Z,53.68
2022-09-03T11:17:38.981Z,53.25
2022-09-03T11:20:16.447Z,52.23
2022-09-03T11:22:48.054Z,51.55
2022-09-03T11:25:23.917Z,51.37
2022-09-03T11:28:03.432Z,51.89
2022-09-03T11:30:50.964Z,52.22
2022-09-03T11:33:22.717Z,52.10
2022-09-03T11:35:57.713Z,50.87
2022-09-03T11:38:31.461Z,51.35
2022-09-03T11:41:04.302Z,51.98
2022-09-03T11:43:34.441Z,51.16
2022-09-03T11:46:06.270Z,50.36
2022-09-03T11:48:39.397Z,50.34
2022-09-03T11:51:21.126Z,50.38
2022-09-03T11:53:57.567Z,51.21
2022-09-03T11:56:27.352Z,51.26
2022-09-03T11:59:16.004Z,51.89
2022-09-03T12:01:50.162Z,51.56
2022-09-03T12:04:21.476Z,51.10
2022-09-03T12:07:26.184Z,52.10
2022-09-03T12:10:27.536Z,52.13
2022-09-03T12:13:25.807Z,52.71
2022-09-03T12:16:15.006Z,52.89
2022-09-03T12:18:45.965Z,52.51
2022-09-03T12:21:14.648Z,52.53
2022-09-03T12:23:45.235Z,52.37
2022-09-03T12:26:15.948Z,52.79
2022-09-03T12:28:48.714Z,53.10
2022-09-03T12:31:22.974Z,52.90
2022-09-03T12:33:53.982Z,54.21
2022-09-03T12:36:23.351Z,54.39
2022-09-03T12:39:11.014Z,55.06
2022-09-03T12:41:40.629Z,55.49
2022-09-03T12:44:12.423Z,55.40
2022-09-03T12:46:40.836Z,55.27
2022-09-03T12:52:06.231Z,54.90
2022-09-03T12:54:36.393Z,55.11
2022-09-03T12:57:05.983Z,54.86
2022-09-03T12:59:39.604Z,54.41
2022-09-03T13:02:18.055Z,54.99
2022-09-03T13:04:48.565Z,54.89
2022-09-03T13:07:25.424Z,55.72
2022-09-03T13:09:59.723Z,55.79
2022-09-03T13:12:33.579Z,55.78
2022-09-03T13:15:10.855Z,55.44
2022-09-03T13:18:08.431Z,55.65
2022-09-03T13:20:43.738Z,55.12
2022-09-03T13:23:33.146Z,55.31
2022-09-03T13:26:14.886Z,55.24
2022-09-03T13:29:01.748Z,54.91
2022-09-03T13:31:38.253Z,54.79
2022-09-03T13:34:10.985Z,54.81
2022-09-03T13:36:46.598Z,55.29
2022-09-03T13:39:24.155Z,55.69
2022-09-03T13:41:58.264Z,55.17
2022-09-03T13:44:42.481Z,54.90
2022-09-03T13:47:24.090Z,55.83
2022-09-03T13:50:14.028Z,55.91
2022-09-03T13:52:47.802Z,56.77
2022-09-03T13:55:23.290Z,56.78
2022-09-03T13:58:01.755Z,57.80
2022-09-03T14:00:35.801Z,58.35
2022-09-03T14:03:16.271Z,59.10
2022-09-03T14:06:06.694Z,59.34
2022-09-03T14:08:54.310Z,58.88
2022-09-03T14:11:32.164Z,59.54
2022-09-03T14:14:19.098Z,59.69
2022-09-03T14:16:55.385Z,59.45
2022-09-03T14:19:38.001Z,58.71
2022-09-03T14:22:10.862Z,58.35
2022-09-03T14:24:48.614Z,58.03
2022-09-03T14:27:25.709Z,57.68
2022-09-03T14:29:56.429Z,57.77
2022-09-03T14:32:31.061Z,57.63
2022-09-03T14:35:16.889Z,57.87
2022-09-03T14:38:14.893Z,58.58
2022-09-03T14:40:46.617Z,58.92
2022-09-03T14:43:32.437Z,58.37
2022-09-03T14:46:16.750Z,59.68
2022-09-03T14:49:02.078Z,59.99
2022-09-03T14:51:46.257Z,59.96
2022-09-03T14:54:43.114Z,60.64
2022-09-03T14:57:36.905Z,61.25
2022-09-03T15:00:10.448Z,61.30
2022-09-03T15:03:14.760Z,61.54
2022-09-03T15:06:05.810Z,61.75
2022-09-03T15:08:46.685Z,61.37
2022-09-03T15:11:19.020Z,61.37
2022-09-03T15:13:52.906Z,61.82
2022-09-03T15:16:36.272Z,61.97
2022-09-03T15:19:14.718Z,62.14
2022-09-03T15:22:01.418Z,62.17
2022-09-03T15:24:44.489Z,61.98
2022-09-03T15:27:32.497Z,61.96
2022-09-03T15:30:09.431Z,62.13
2022-09-03T15:32:58.310Z,62.22
2022-09-03T15:35:54.049Z,62.76
2022-09-03T15:38:42.473Z,62.61
2022-09-03T15:41:23.701Z,62.71
2022-09-03T15:43:53.035Z,63.18
2022-09-03T15:46:40.013Z,63.43
2022-09-03T15:49:20.029Z,63.29
2022-09-03T15:52:01.430Z,63.23
2022-09-03T15:54:44.053Z,63.75
2022-09-03T15:57:19.932Z,63.98
2022-09-03T15:59:55.468Z,64.31
2022-09-03T16:02:33.651Z,65.46
2022-09-03T16:05:14.294Z,65.92
2022-09-03T16:08:14.029Z,66.06
2022-09-03T16:10:54.777Z,66.01
2022-09-03T16:13:59.739Z,65.86
2022-09-03T16:16:32.340Z,66.21
2022-09-03T16:19:10.138Z,66.18
2022-09-03T16:21:47.162Z,66.24
2022-09-03T16:24:20.904Z,66.26
2022-09-03T16:26:55.237Z,66.47
2022-09-03T16:29:30.977Z,66.85
2022-09-03T16:32:19.683Z,66.83
2022-09-03T16:34:58.402Z,67.11
2022-09-03T16:37:36.523Z,67.20
2022-09-03T16:40:16.110Z,67.14
2022-09-03T16:42:49.908Z,67.14
2022-09-03T16:45:31.649Z,68.32
2022-09-03T16:48:14.441Z,68.81
2022-09-03T16:51:00.787Z,68.80
2022-09-03T16:53:40.890Z,68.64
2022-09-03T16:56:25.009Z,68.39
2022-09-03T16:59:03.045Z,68.36
2022-09-03T17:01:55.389Z,68.12
2022-09-03T17:04:35.584Z,68.59
2022-09-03T17:07:17.690Z,68.32
2022-09-03T17:09:57.464Z,68.60
2022-09-03T17:12:34.367Z,68.50
2022-09-03T17:15:30.171Z,68.70
2022-09-03T17:18:09.803Z,68.70
2022-09-03T17:20:52.133Z,69.27
2022-09-03T17:23:38.639Z,69.81
2022-09-03T17:26:13.058Z,69.58
2022-09-03T17:28:59.777Z,69.98
2022-09-03T17:31:40.335Z,69.70
2022-09-03T17:34:16.440Z,70.00
2022-09-03T17:36:55.739Z,70.27
2022-09-03T17:40:08.802Z,70.37
2022-09-03T17:42:50.439Z,70.17
2022-09-03T17:45:34.402Z,69.61
2022-09-03T17:48:27.836Z,70.16
2022-09-03T17:51:03.246Z,70.42
2022-09-03T17:53:39.824Z,70.01
2022-09-03T17:56:12.476Z,70.01
2022-09-03T17:58:45.057Z,70.02
2022-09-03T18:01:22.080Z,70.07
2022-09-03T18:03:55.475Z,70.15
2022-09-03T18:06:36.054Z,70.46
2022-09-03T18:09:08.715Z,70.96
2022-09-03T18:11:40.297Z,71.49
2022-09-03T18:14:18.153Z,71.46
2022-09-03T18:16:53.421Z,71.53
2022-09-03T18:19:51.971Z,72.12
2022-09-03T18:22:41.359Z,72.06
2022-09-03T18:25:31.515Z,72.42
2022-09-03T18:28:20.243Z,72.74
2022-09-03T18:31:08.885Z,72.70
2022-09-03T18:33:56.103Z,72.97
2022-09-03T18:36:42.417Z,73.30
2022-09-03T18:39:34.001Z,73.30
2022-09-03T18:42:27.818Z,73.46
2022-09-03T18:45:22.827Z,73.41
2022-09-03T18:48:24.323Z,73.36
2022-09-03T18:51:17.571Z,73.51
2022-09-03T18:54:13.370Z,73.50
2022-09-03T18:57:06.380Z,73.92
2022-09-03T19:00:28.769Z,73.83
2022-09-03T19:03:29.516Z,73.87
2022-09-03T19:06:24.505Z,73.80
2022-09-03T19:09:19.222Z,73.97
2022-09-03T19:12:14.339Z,74.00
2022-09-03T19:15:12.442Z,74.33
2022-09-03T19:18:14.934Z,74.12
2022-09-03T19:21:10.074Z,74.16
2022-09-03T19:23:55.950Z,74.42
2022-09-03T19:26:56.465Z,74.17
2022-09-03T19:30:04.274Z,74.23
2022-09-03T19:33:01.251Z,74.25
2022-09-03T19:35:59.265Z,74.02
2022-09-03T19:38:56.323Z,74.20
2022-09-03T19:41:49.229Z,74.25
2022-09-03T19:44:48.379Z,74.16
2022-09-03T19:47:45.211Z,74.04
2022-09-03T19:50:40.184Z,74.48
2022-09-03T19:53:29.051Z,74.42
2022-09-03T19:56:17.026Z,74.36
2022-09-03T19:59:07.406Z,74.32
2022-09-03T20:01:56.576Z,74.00
2022-09-03T20:04:48.452Z,74.54
2022-09-03T20:07:34.924Z,74.78
2022-09-03T20:10:23.568Z,74.46
2022-09-03T20:13:00.712Z,74.67
2022-09-03T20:15:41.571Z,74.89
2022-09-03T20:18:19.314Z,74.42
2022-09-03T20:20:53.880Z,74.47
2022-09-03T20:23:28.854Z,74.88
2022-09-03T20:26:10.895Z,74.66
2022-09-03T20:29:00.047Z,74.39
2022-09-03T20:31:40.212Z,74.36
2022-09-03T20:34:25.617Z,74.22
2022-09-03T20:37:03.711Z,74.63
2022-09-03T20:39:44.155Z,74.71
2022-09-03T20:42:32.849Z,74.58
2022-09-03T20:45:09.764Z,74.64
2022-09-03T20:48:00.207Z,74.91
2022-09-03T20:50:44.343Z,74.81
2022-09-03T20:53:31.259Z,74.73
2022-09-03T20:56:04.770Z,74.70
2022-09-03T20:58:43.279Z,75.06
2022-09-03T21:01:20.256Z,75.61
2022-09-03T21:04:04.024Z,75.07
2022-09-03T21:06:42.530Z,75.33
2022-09-03T21:09:25.463Z,75.26
2022-09-03T21:12:03.832Z,75.20
2022-09-03T21:14:39.949Z,75.35
2022-09-03T21:17:29.041Z,76.07
2022-09-03T21:20:09.327Z,76.09
2022-09-03T21:22:52.794Z,76.38
2022-09-03T21:25:26.370Z,76.20
2022-09-03T21:28:00.964Z,76.10
2022-09-03T21:30:32.505Z,76.75
2022-09-03T21:33:07.933Z,76.40
2022-09-03T21:35:40.852Z,76.19
2022-09-03T21:38:15.841Z,75.93
2022-09-03T21:40:50.868Z,75.89
2022-09-03T21:43:23.055Z,75.74
2022-09-03T21:45:55.151Z,76.27
2022-09-03T21:48:26.420Z,75.62
2022-09-03T21:50:57.158Z,75.64
2022-09-03T21:53:35.190Z,75.74
2022-09-03T21:56:53.873Z,75.81
2022-09-03T21:59:38.947Z,75.79
2022-09-03T22:02:20.941Z,76.08
2022-09-03T22:04:50.514Z,76.15
2022-09-03T22:07:27.819Z,76.29
2022-09-03T22:10:04.802Z,76.33
2022-09-03T22:12:40.320Z,76.29
2022-09-03T22:15:13.491Z,75.97
2022-09-03T22:17:49.463Z,75.82
2022-09-03T22:20:19.132Z,76.24
2022-09-03T22:22:56.543Z,76.62
2022-09-03T22:29:37.678Z,76.72
2022-09-03T22:32:19.825Z,76.88
2022-09-03T22:35:06.840Z,76.67
2022-09-03T22:37:53.437Z,76.29
2022-09-03T22:40:27.020Z,76.02
2022-09-03T22:44:00.093Z,76.48
2022-09-03T22:46:37.984Z,76.37
2022-09-03T22:49:25.524Z,76.38
2022-09-03T22:52:10.130Z,76.17
2022-09-03T22:54:53.161Z,76.56
2022-09-03T22:57:25.521Z,76.82
2022-09-03T23:00:01.458Z,76.27
2022-09-03T23:02:46.074Z,75.98
2022-09-03T23:05:40.819Z,76.69
2022-09-03T23:08:32.879Z,77.54
2022-09-03T23:11:13.064Z,78.67
2022-09-03T23:13:47.847Z,78.76
2022-09-03T23:16:25.203Z,78.80
2022-09-03T23:18:57.400Z,79.27
2022-09-03T23:21:31.879Z,79.52
2022-09-03T23:24:07.005Z,80.00
2022-09-03T23:26:40.317Z,80.24
2022-09-03T23:29:15.673Z,80.12
2022-09-03T23:31:54.466Z,80.33
2022-09-03T23:34:24.722Z,80.12
2022-09-03T23:37:35.323Z,79.78
2022-09-03T23:40:26.343Z,79.65
2022-09-03T23:43:42.878Z,79.92
2022-09-03T23:46:19.545Z,79.24
2022-09-03T23:49:04.461Z,79.42
2022-09-03T23:51:45.418Z,79.31
2022-09-03T23:54:21.157Z,79.35
2022-09-03T23:57:08.310Z,78.82
2022-09-03T23:59:54.552Z,78.81
